Station: EHBK - 22/02/2019 13:55Z (il y a 6 minutes)
EHBK 221355Z AUTO 10005KT 060V130 4700 BR BKN006 OVC007 11/09 Q1036 BECMG 6000 NSW BKN012
Vent du 100º - 5 kt (vent de direction variable de 060º à 130º)
Visibilité: 4700 m (brume)
Ciel 75% couvert à 600 pieds - Ciel couvert à 700 pieds
Température: +11ºC - Point de rosée: +09ºC - QNH: 1036 hPa
Evoluant vers
Visibilité: 6000 m
Code: NSW
Ciel 75% couvert à 1200 pieds